Arvika Airport


Codes: ESKV/
Name: Arvika Airport
City:
Country: Sweden
Elevation: 237 ft.

Photos at Arvika Airport


   Photos courtesy of SpottingLog. You can add your own sightings and photos by signing up for a free trial today.



No photos found.

Weather at Arvika Airport


Time (UTC)DescriptionTempratureWindCloud coverageVisibilityPressureHumidity
19-Apr-2024 03:00Broken Clouds0°C7 mph, E79%10000m1010hPa94%
19-Apr-2024 06:00Broken Clouds0°C7 mph, E83%10000m1010hPa88%
19-Apr-2024 09:00Overcast Clouds2°C7 mph, E93%10000m1010hPa73%
19-Apr-2024 12:00Light Rain5°C7 mph, E100%10000m1010hPa47%
19-Apr-2024 15:00Light Rain6°C4 mph, NE100%10000m1009hPa45%
19-Apr-2024 18:00Light Snow3°C2 mph, E99%10000m1010hPa67%
19-Apr-2024 21:00Scattered Clouds-1°C4 mph, N31%10000m1012hPa79%
20-Apr-2024 00:00Scattered Clouds-1°C4 mph, N31%10000m1013hPa80%
20-Apr-2024 03:00Few Clouds-2°C2 mph, N21%10000m1015hPa85%
20-Apr-2024 06:00Few Clouds1°C4 mph, N21%10000m1016hPa67%
20-Apr-2024 09:00Scattered Clouds5°C9 mph, N43%10000m1017hPa44%
20-Apr-2024 12:00Broken Clouds8°C9 mph, N70%10000m1018hPa34%
20-Apr-2024 15:00Overcast Clouds7°C9 mph, N96%10000m1020hPa37%
20-Apr-2024 18:00Overcast Clouds4°C4 mph, NE98%10000m1023hPa59%
20-Apr-2024 21:00Overcast Clouds0°C2 mph, N93%10000m1025hPa75%
21-Apr-2024 00:00Broken Clouds-1°C2 mph, N82%10000m1028hPa75%
21-Apr-2024 03:00Scattered Clouds-1°C4 mph, N31%10000m1029hPa81%
21-Apr-2024 06:00Broken Clouds2°C7 mph, NE54%10000m1031hPa61%
21-Apr-2024 09:00Scattered Clouds6°C9 mph, NE45%10000m1032hPa41%
21-Apr-2024 12:00Scattered Clouds8°C9 mph, NE48%10000m1031hPa34%
21-Apr-2024 15:00Broken Clouds8°C9 mph, NE71%10000m1031hPa32%
21-Apr-2024 18:00Broken Clouds4°C4 mph, NE59%10000m1032hPa43%
21-Apr-2024 21:00Clear Sky-0°C4 mph, E5%10000m1034hPa62%
22-Apr-2024 00:00Clear Sky-2°C4 mph, E3%10000m1034hPa72%
22-Apr-2024 03:00Clear Sky-3°C2 mph, N0%10000m1033hPa68%
22-Apr-2024 06:00Clear Sky-0°C4 mph, NE0%10000m1032hPa48%
22-Apr-2024 09:00Scattered Clouds4°C4 mph, NE31%10000m1029hPa32%
22-Apr-2024 12:00Scattered Clouds8°C2 mph, NE46%10000m1026hPa25%
22-Apr-2024 15:00Scattered Clouds9°C2 mph, N29%10000m1024hPa25%
22-Apr-2024 18:00Few Clouds5°C0 mph, NE17%10000m1023hPa41%
22-Apr-2024 21:00Scattered Clouds1°C2 mph, S29%10000m1022hPa57%
23-Apr-2024 00:00Few Clouds-1°C2 mph, W24%10000m1021hPa66%
23-Apr-2024 03:00Clear Sky-1°C2 mph, S1%10000m1020hPa77%
23-Apr-2024 06:00Few Clouds3°C4 mph, S12%10000m1018hPa75%
23-Apr-2024 09:00Light Rain6°C7 mph, SW100%3516m1015hPa64%
23-Apr-2024 12:00Light Rain6°C9 mph, S100%7178m1013hPa72%
23-Apr-2024 15:00Light Rain4°C7 mph, N100%0m1011hPa97%
23-Apr-2024 18:00Snow2°C7 mph, SE100%697m1009hPa97%
23-Apr-2024 21:00Light Snow3°C9 mph, SE100%226m1008hPa97%
24-Apr-2024 00:00Snow2°C9 mph, N100%0m1007hPa98%